Time;durP1;ratioP1;P1;durP2;ratioP2;P2;SDS_P1;SDS_P2;PMS_P1;PMS_P2;Temp;Humidity;BMP_temperature;BMP_pressure;BME280_temperature;BME280_humidity;BME280_pressure;Samples;Min_cycle;Max_cycle;Signal;HPM_P1;HPM_P2
2021/06/10 00:01:33;;;;;;;1.05;1.02;;;19.70;99.90;;;;;;5092966;28;20028;-77
2021/06/10 00:03:59;;;;;;;1.10;1.10;;;19.70;99.90;;;;;;5092617;28;20024;-77
2021/06/10 00:06:25;;;;;;;1.42;1.33;;;19.40;99.90;;;;;;5092691;28;20076;-79
2021/06/10 00:08:51;;;;;;;3.08;1.65;;;19.30;99.90;;;;;;5092955;28;20376;-78
2021/06/10 00:11:17;;;;;;;1.25;1.17;;;19.40;99.90;;;;;;5091745;28;20398;-79
2021/06/10 00:13:43;;;;;;;1.73;1.63;;;19.50;99.90;;;;;;5093085;28;20032;-80
2021/06/10 00:16:08;;;;;;;1.10;1.10;;;19.40;99.90;;;;;;5074643;28;20051;-78
2021/06/10 00:18:34;;;;;;;3.08;2.28;;;19.20;99.90;;;;;;5092426;28;20024;-80
2021/06/10 00:21:00;;;;;;;1.20;1.10;;;18.90;99.90;;;;;;5092870;28;20035;-79
2021/06/10 00:23:26;;;;;;;1.50;1.40;;;18.90;99.90;;;;;;5092363;28;20031;-79
2021/06/10 00:25:52;;;;;;;2.17;2.05;;;19.20;99.90;;;;;;5092382;28;20048;-80
2021/06/10 00:28:17;;;;;;;1.30;1.20;;;19.20;99.90;;;;;;5092452;28;20380;-79
2021/06/10 00:30:46;;;;;;;1.52;1.42;;;19.30;99.90;;;;;;5092444;28;20024;-78
2021/06/10 00:33:12;;;;;;;1.30;1.20;;;19.30;99.90;;;;;;5092478;28;20028;-77
2021/06/10 00:35:38;;;;;;;1.40;1.30;;;19.40;99.90;;;;;;5091962;28;20024;-78
2021/06/10 00:38:07;;;;;;;1.60;1.50;;;19.20;99.90;;;;;;5073982;28;20189;-80
2021/06/10 00:40:34;;;;;;;1.23;1.13;;;19.20;99.90;;;;;;5092170;28;20483;-79
2021/06/10 00:43:00;;;;;;;1.20;1.10;;;19.30;99.90;;;;;;5092225;28;20129;-78
2021/06/10 00:45:26;;;;;;;1.75;1.65;;;19.40;99.90;;;;;;5091995;28;20039;-78
2021/06/10 00:47:53;;;;;;;1.17;1.10;;;19.20;99.90;;;;;;5092140;28;20024;-80
2021/06/10 00:50:31;;;;;;;2.10;1.90;;;19.20;99.90;;;;;;5092120;28;20024;-79
2021/06/10 00:52:57;;;;;;;1.40;1.30;;;19.30;99.90;;;;;;5092044;28;20078;-78
2021/06/10 00:55:23;;;;;;;1.20;1.10;;;19.10;99.90;;;;;;5092043;28;20028;-79
2021/06/10 00:57:48;;;;;;;1.30;1.20;;;19.10;99.90;;;;;;5091838;28;20036;-79
2021/06/10 01:00:16;;;;;;;1.52;1.35;;;19.10;99.90;;;;;;5091917;28;20021;-79
2021/06/10 01:02:42;;;;;;;2.00;1.80;;;19.20;99.90;;;;;;5092124;28;20030;-79
2021/06/10 01:05:09;;;;;;;1.40;1.30;;;19.20;99.90;;;;;;5091437;28;20094;-78
2021/06/10 01:07:54;;;;;;;1.20;1.10;;;19.10;99.90;;;;;;5091831;28;20103;-78
2021/06/10 01:10:48;;;;;;;1.13;1.10;;;19.10;99.90;;;;;;5091782;28;20023;-80
2021/06/10 01:13:25;;;;;;;1.30;1.20;;;19.00;99.90;;;;;;5091867;28;20028;-79
2021/06/10 01:15:58;;;;;;;1.30;1.20;;;19.00;99.90;;;;;;5091669;28;20032;-78
2021/06/10 01:18:26;;;;;;;1.30;1.20;;;18.90;99.90;;;;;;5092024;28;20016;-77
2021/06/10 01:20:54;;;;;;;2.00;1.67;;;18.60;99.90;;;;;;5091212;28;20031;-79
2021/06/10 01:23:29;;;;;;;1.30;1.20;;;18.50;99.90;;;;;;5091427;28;20054;-79
2021/06/10 01:26:16;;;;;;;1.30;1.20;;;18.30;99.90;;;;;;5091488;28;20365;-78
2021/06/10 01:28:44;;;;;;;1.25;1.15;;;18.00;99.90;;;;;;5091834;28;20148;-79
2021/06/10 01:31:13;;;;;;;1.60;1.50;;;17.70;99.90;;;;;;5091244;28;20074;-77
2021/06/10 01:33:53;;;;;;;1.83;1.73;;;17.70;99.90;;;;;;5091394;28;20070;-81
2021/06/10 01:36:32;;;;;;;1.30;1.20;;;17.50;99.90;;;;;;5091007;28;20032;-81
2021/06/10 01:39:00;;;;;;;3.03;1.92;;;17.30;99.90;;;;;;5091254;28;20068;-78
2021/06/10 01:41:27;;;;;;;1.52;1.42;;;17.60;99.90;;;;;;5091203;28;20028;-79
2021/06/10 01:43:55;;;;;;;1.63;1.52;;;17.30;99.90;;;;;;5091310;28;20024;-79
2021/06/10 01:46:27;;;;;;;1.52;1.42;;;17.30;99.90;;;;;;5091265;28;20073;-78
2021/06/10 01:48:53;;;;;;;1.40;1.30;;;17.40;99.90;;;;;;5091448;28;20653;-80
2021/06/10 01:51:24;;;;;;;1.50;1.40;;;17.50;99.90;;;;;;5091086;28;20027;-79
2021/06/10 01:53:52;;;;;;;1.42;1.33;;;17.90;99.90;;;;;;5091346;28;20028;-78
2021/06/10 01:56:22;;;;;;;1.40;1.30;;;18.10;99.90;;;;;;5091523;28;20368;-78
2021/06/10 01:58:49;;;;;;;1.40;1.30;;;18.30;99.90;;;;;;5091275;28;20481;-79
2021/06/10 02:01:26;;;;;;;1.40;1.30;;;18.40;99.90;;;;;;5090907;28;20484;-78
2021/06/10 02:03:55;;;;;;;1.40;1.30;;;18.50;99.90;;;;;;5090665;28;20103;-78
2021/06/10 02:06:21;;;;;;;1.40;1.30;;;18.60;99.90;;;;;;5091233;28;20426;-79
2021/06/10 02:08:48;;;;;;;1.40;1.30;;;18.60;99.90;;;;;;5090892;28;20092;-79
2021/06/10 02:11:16;;;;;;;1.40;1.30;;;18.40;99.90;;;;;;5090511;28;20016;-80
2021/06/10 02:13:43;;;;;;;1.20;1.10;;;18.40;99.90;;;;;;5091326;28;20031;-80
2021/06/10 02:16:09;;;;;;;2.05;1.83;;;18.40;99.90;;;;;;5090764;28;20155;-80
2021/06/10 02:18:38;;;;;;;1.40;1.30;;;18.40;99.90;;;;;;5090913;28;20391;-80
2021/06/10 02:21:06;;;;;;;1.85;1.75;;;18.40;99.90;;;;;;5091014;28;20020;-78
2021/06/10 02:23:38;;;;;;;1.85;1.63;;;18.30;99.90;;;;;;5091018;28;20024;-79
2021/06/10 02:26:05;;;;;;;2.20;2.00;;;18.20;99.90;;;;;;5090738;28;20132;-78
2021/06/10 02:28:32;;;;;;;1.42;1.33;;;18.20;99.90;;;;;;5091049;28;20032;-79
2021/06/10 02:30:59;;;;;;;1.60;1.50;;;18.20;99.90;;;;;;5072786;28;20028;-79
2021/06/10 02:33:25;;;;;;;1.50;1.40;;;18.10;99.90;;;;;;5090739;28;20035;-79
2021/06/10 02:35:52;;;;;;;1.83;1.73;;;18.00;99.90;;;;;;5094002;28;20434;-79
2021/06/10 02:38:20;;;;;;;1.48;1.38;;;18.10;99.90;;;;;;5094766;28;20055;-78
2021/06/10 02:40:49;;;;;;;1.75;1.65;;;18.20;99.90;;;;;;5094563;28;20024;-79
2021/06/10 02:43:16;;;;;;;5.07;3.78;;;18.20;99.90;;;;;;5094862;28;20029;-79
2021/06/10 02:45:44;;;;;;;1.45;1.35;;;18.10;99.90;;;;;;5094807;28;20394;-79
2021/06/10 02:48:11;;;;;;;1.30;1.20;;;18.10;99.90;;;;;;5075841;28;20547;-78
2021/06/10 02:50:39;;;;;;;1.40;1.30;;;18.10;99.90;;;;;;5076620;28;20031;-78
2021/06/10 02:53:06;;;;;;;2.10;1.95;;;18.10;99.90;;;;;;5094471;28;20198;-80
2021/06/10 02:55:36;;;;;;;1.92;1.83;;;18.10;99.90;;;;;;5094291;28;20103;-78
2021/06/10 02:58:03;;;;;;;1.40;1.30;;;17.90;99.90;;;;;;5094088;28;20036;-79
2021/06/10 03:00:33;;;;;;;1.40;1.30;;;17.80;99.90;;;;;;5076232;28;20665;-79
2021/06/10 03:03:02;;;;;;;1.47;1.37;;;17.90;99.90;;;;;;5093926;28;20483;-79
2021/06/10 03:05:30;;;;;;;1.50;1.40;;;17.90;99.90;;;;;;5094283;28;20030;-78
2021/06/10 03:07:57;;;;;;;1.60;1.50;;;17.90;99.90;;;;;;5093797;28;20020;-79
2021/06/10 03:10:32;;;;;;;1.63;1.52;;;17.90;99.90;;;;;;5093880;28;20035;-80
2021/06/10 03:12:59;;;;;;;2.15;2.00;;;17.80;99.90;;;;;;5094041;28;20055;-80
2021/06/10 03:15:26;;;;;;;2.45;2.33;;;17.70;99.90;;;;;;5075609;28;20091;-79
2021/06/10 03:17:52;;;;;;;1.40;1.30;;;17.60;99.90;;;;;;5093748;28;20051;-79
2021/06/10 03:20:18;;;;;;;1.45;1.35;;;17.80;99.90;;;;;;5093873;28;20024;-80
2021/06/10 03:22:44;;;;;;;1.42;1.33;;;17.70;99.90;;;;;;5094092;28;20031;-80
2021/06/10 03:25:11;;;;;;;1.40;1.30;;;17.70;99.90;;;;;;5093028;28;20054;-81
2021/06/10 03:27:37;;;;;;;1.73;1.63;;;17.60;99.90;;;;;;5093526;28;20036;-81
2021/06/10 03:30:08;;;;;;;1.73;1.58;;;17.60;99.90;;;;;;5093786;28;20020;-79
2021/06/10 03:32:34;;;;;;;1.60;1.50;;;17.80;99.90;;;;;;5093432;28;20076;-79
2021/06/10 03:35:01;;;;;;;1.50;1.40;;;17.60;99.90;;;;;;5093605;28;20036;-79
2021/06/10 03:37:27;;;;;;;1.50;1.40;;;17.60;99.90;;;;;;5093155;28;20032;-79
2021/06/10 03:39:54;;;;;;;1.40;1.30;;;17.60;99.90;;;;;;5093357;28;20027;-78
2021/06/10 03:42:21;;;;;;;1.58;1.48;;;17.60;99.90;;;;;;5075057;28;20044;-77
2021/06/10 03:44:48;;;;;;;1.58;1.48;;;17.70;99.90;;;;;;5093107;28;20024;-79
2021/06/10 03:47:15;;;;;;;1.40;1.30;;;17.80;99.90;;;;;;5093050;28;20020;-78
2021/06/10 03:49:42;;;;;;;1.40;1.30;;;17.80;99.90;;;;;;5093271;28;20050;-79
2021/06/10 03:52:08;;;;;;;1.40;1.30;;;17.90;99.90;;;;;;5092988;28;20059;-79
2021/06/10 03:54:34;;;;;;;1.65;1.55;;;18.00;99.90;;;;;;5092882;28;20387;-79
2021/06/10 03:57:00;;;;;;;2.08;1.98;;;18.00;99.90;;;;;;5092961;28;20532;-78
2021/06/10 03:59:26;;;;;;;1.40;1.30;;;18.10;99.90;;;;;;5092987;28;20024;-79
2021/06/10 04:01:51;;;;;;;2.63;2.42;;;18.00;99.90;;;;;;5093234;28;20028;-79
2021/06/10 04:04:18;;;;;;;1.30;1.20;;;18.00;99.90;;;;;;5092702;28;20020;-80
2021/06/10 04:06:44;;;;;;;1.40;1.30;;;18.00;99.90;;;;;;5092993;28;20070;-79
2021/06/10 04:09:10;;;;;;;1.40;1.30;;;18.00;99.90;;;;;;5092749;28;20069;-81
2021/06/10 04:11:40;;;;;;;2.20;1.95;;;18.10;99.90;;;;;;5074836;28;20032;-82
2021/06/10 04:14:06;;;;;;;1.45;1.35;;;18.20;99.90;;;;;;5092811;28;20032;-81
2021/06/10 04:16:35;;;;;;;1.77;1.67;;;18.20;99.90;;;;;;5092340;28;20038;-81
2021/06/10 04:19:13;;;;;;;1.40;1.30;;;18.20;99.90;;;;;;5092675;28;20047;-82
2021/06/10 04:21:40;;;;;;;1.60;1.50;;;18.40;99.90;;;;;;5092595;28;20132;-81
2021/06/10 04:24:06;;;;;;;3.70;2.15;;;18.30;99.90;;;;;;5091843;28;20032;-81
2021/06/10 04:26:32;;;;;;;2.15;1.95;;;18.20;99.90;;;;;;5092437;28;20028;-80
2021/06/10 04:28:58;;;;;;;1.33;1.23;;;18.40;99.90;;;;;;5092555;28;20113;-77
2021/06/10 04:31:23;;;;;;;3.55;2.35;;;18.20;99.90;;;;;;5092267;28;20375;-80
2021/06/10 04:33:49;;;;;;;1.48;1.38;;;18.40;99.90;;;;;;5092367;28;20409;-83
2021/06/10 04:36:15;;;;;;;1.50;1.40;;;18.40;99.90;;;;;;5092138;28;20476;-81
2021/06/10 04:38:41;;;;;;;1.20;1.10;;;18.60;99.90;;;;;;5092013;28;20039;-82
2021/06/10 04:41:08;;;;;;;1.33;1.23;;;18.50;99.90;;;;;;5092375;28;20088;-81
2021/06/10 04:43:34;;;;;;;1.23;1.13;;;18.50;99.90;;;;;;5092272;28;20181;-82
2021/06/10 04:46:00;;;;;;;1.77;1.67;;;18.50;99.90;;;;;;5092250;28;20078;-81
2021/06/10 04:48:27;;;;;;;1.30;1.20;;;18.40;99.90;;;;;;5092137;28;20470;-80
2021/06/10 04:50:54;;;;;;;1.20;1.10;;;18.50;99.90;;;;;;5092539;28;20051;-81
2021/06/10 04:53:20;;;;;;;1.42;1.33;;;18.60;99.90;;;;;;5091844;28;20039;-81
2021/06/10 04:55:46;;;;;;;1.40;1.30;;;18.60;99.90;;;;;;5092539;28;20383;-89
2021/06/10 04:58:12;;;;;;;2.28;2.08;;;18.60;99.90;;;;;;5092271;28;20387;-90
2021/06/10 05:00:38;;;;;;;2.08;1.90;;;18.70;99.90;;;;;;5092407;28;20024;-83
2021/06/10 05:03:08;;;;;;;2.17;2.08;;;18.70;99.90;;;;;;5091665;28;20030;-83
2021/06/10 05:05:34;;;;;;;1.55;1.45;;;18.80;99.90;;;;;;5091873;28;20024;-80
2021/06/10 05:08:01;;;;;;;1.20;1.10;;;18.90;99.90;;;;;;5091710;28;20051;-82
2021/06/10 05:10:27;;;;;;;1.48;1.35;;;19.00;99.90;;;;;;5091431;28;20020;-77
2021/06/10 05:12:53;;;;;;;1.20;1.10;;;19.10;99.90;;;;;;5073174;28;20042;-81
2021/06/10 05:15:19;;;;;;;1.42;1.33;;;19.20;99.90;;;;;;5073280;28;20024;-79
2021/06/10 05:17:45;;;;;;;7.07;5.70;;;19.30;99.90;;;;;;5091382;28;20038;-78
2021/06/10 05:20:11;;;;;;;4.15;3.80;;;19.40;99.90;;;;;;5091787;28;20017;-79
2021/06/10 05:22:37;;;;;;;6.80;6.13;;;19.40;99.90;;;;;;5091568;28;20391;-78
2021/06/10 05:25:04;;;;;;;1.75;1.65;;;19.50;99.90;;;;;;5091081;28;20476;-79
2021/06/10 05:27:30;;;;;;;1.33;1.23;;;19.50;99.90;;;;;;5091191;28;20081;-79
2021/06/10 05:29:56;;;;;;;1.00;1.00;;;19.50;99.90;;;;;;5091241;28;20024;-79
2021/06/10 05:32:22;;;;;;;1.98;1.85;;;19.70;99.90;;;;;;5088137;28;20036;-78
2021/06/10 05:34:48;;;;;;;1.73;1.63;;;19.80;99.90;;;;;;5090520;28;20024;-79
2021/06/10 05:37:13;;;;;;;1.00;1.00;;;19.70;99.90;;;;;;5089996;28;20504;-79
2021/06/10 05:39:39;;;;;;;1.00;1.00;;;19.80;99.90;;;;;;5089434;28;20023;-79
2021/06/10 05:42:05;;;;;;;0.90;0.90;;;19.90;99.90;;;;;;5072931;28;20471;-80
2021/06/10 05:44:31;;;;;;;6.60;2.25;;;19.90;99.90;;;;;;5072753;28;20039;-79
2021/06/10 05:46:57;;;;;;;1.40;1.30;;;19.90;99.90;;;;;;5091088;28;20054;-79
2021/06/10 05:49:22;;;;;;;1.63;1.52;;;19.90;99.90;;;;;;5091002;28;20024;-83
2021/06/10 05:51:48;;;;;;;3.63;1.70;;;19.90;99.90;;;;;;5073134;28;20024;-79
2021/06/10 05:54:14;;;;;;;1.75;1.65;;;20.00;99.90;;;;;;5090980;28;20459;-81
2021/06/10 05:56:39;;;;;;;2.45;1.92;;;20.00;99.90;;;;;;5095097;28;20483;-79
2021/06/10 05:59:05;;;;;;;6.10;1.75;;;20.00;99.90;;;;;;5093766;28;20483;-79
2021/06/10 06:01:31;;;;;;;1.52;1.42;;;20.00;99.90;;;;;;5090720;28;20424;-80
2021/06/10 06:03:57;;;;;;;0.90;0.90;;;20.00;99.90;;;;;;5088705;28;20427;-81
2021/06/10 06:06:23;;;;;;;1.60;1.50;;;19.90;99.90;;;;;;5095984;28;20032;-79
2021/06/10 06:08:49;;;;;;;1.45;1.38;;;20.00;99.90;;;;;;5098319;28;20023;-80
2021/06/10 06:11:16;;;;;;;1.00;1.00;;;20.00;99.90;;;;;;5097913;28;20479;-80
2021/06/10 06:13:49;;;;;;;4.00;2.33;;;20.00;99.90;;;;;;5076959;28;20055;-79
2021/06/10 06:16:20;;;;;;;0.98;0.95;;;19.90;99.90;;;;;;5094821;28;20391;-79
2021/06/10 06:18:47;;;;;;;1.67;1.58;;;20.00;99.90;;;;;;5082091;28;20064;-80
2021/06/10 06:21:13;;;;;;;1.40;1.30;;;20.20;99.90;;;;;;5078046;28;20028;-80
2021/06/10 06:23:43;;;;;;;1.95;1.85;;;20.00;99.90;;;;;;5094347;28;20024;-81
2021/06/10 06:26:10;;;;;;;1.23;1.13;;;20.20;99.90;;;;;;5098828;28;20027;-81
2021/06/10 06:28:39;;;;;;;1.58;1.48;;;20.30;99.90;;;;;;5105274;28;20085;-80
2021/06/10 06:31:05;;;;;;;1.08;1.08;;;20.40;99.90;;;;;;5105877;28;20102;-80
2021/06/10 06:33:31;;;;;;;1.00;1.00;;;20.40;99.90;;;;;;5093689;28;20035;-82
2021/06/10 06:35:56;;;;;;;1.42;1.33;;;20.50;99.90;;;;;;5084935;28;20020;-79
2021/06/10 06:38:22;;;;;;;1.77;1.42;;;20.60;99.90;;;;;;5104426;28;20115;-81
2021/06/10 06:40:49;;;;;;;1.98;1.30;;;20.60;99.90;;;;;;5085795;28;20184;-84
2021/06/10 06:43:17;;;;;;;1.08;1.02;;;20.70;99.90;;;;;;5099564;28;20028;-82
2021/06/10 06:45:43;;;;;;;0.90;0.90;;;20.70;99.90;;;;;;5109122;28;20083;-78
2021/06/10 06:48:10;;;;;;;1.00;1.00;;;20.70;99.90;;;;;;5098828;28;20017;-79
2021/06/10 06:50:36;;;;;;;0.82;0.82;;;20.70;99.90;;;;;;5073636;28;20025;-79
2021/06/10 06:53:03;;;;;;;3.10;1.50;;;20.90;99.90;;;;;;5073861;28;20032;-79
2021/06/10 06:55:30;;;;;;;0.90;0.90;;;20.90;99.90;;;;;;5073337;28;20114;-79
2021/06/10 06:57:56;;;;;;;1.85;1.70;;;20.90;99.90;;;;;;5079364;28;20409;-79
2021/06/10 07:00:22;;;;;;;0.90;0.90;;;21.10;99.90;;;;;;5093917;28;20020;-82
2021/06/10 07:02:49;;;;;;;2.53;1.73;;;21.20;99.90;;;;;;5088739;28;20036;-81
2021/06/10 07:05:15;;;;;;;0.90;0.90;;;21.20;99.90;;;;;;5073628;28;20027;-82
2021/06/10 07:07:41;;;;;;;1.02;1.02;;;21.30;99.90;;;;;;5074028;28;20020;-83
2021/06/10 07:10:07;;;;;;;1.75;1.50;;;21.40;99.90;;;;;;5073324;28;20500;-81
2021/06/10 07:12:33;;;;;;;2.30;2.08;;;21.50;99.90;;;;;;5055402;28;20762;-83
2021/06/10 07:14:59;;;;;;;2.75;2.55;;;21.60;99.90;;;;;;5079446;28;20479;-85
2021/06/10 07:17:25;;;;;;;0.90;0.90;;;21.60;99.90;;;;;;5101966;28;20031;-79
2021/06/10 07:19:52;;;;;;;0.90;0.90;;;21.70;99.90;;;;;;5089234;28;20023;-84
2021/06/10 07:22:18;;;;;;;1.05;0.95;;;21.80;99.90;;;;;;5103398;28;20102;-84
2021/06/10 07:24:46;;;;;;;0.95;0.95;;;21.90;99.90;;;;;;5100648;28;20042;-80
2021/06/10 07:27:14;;;;;;;0.80;0.80;;;22.00;99.90;;;;;;5102653;28;20383;-83
2021/06/10 07:29:39;;;;;;;1.15;1.05;;;22.10;99.90;;;;;;5102505;28;20104;-82
2021/06/10 07:32:05;;;;;;;0.80;0.80;;;22.20;99.90;;;;;;5093088;28;20498;-81
2021/06/10 07:34:32;;;;;;;0.80;0.80;;;22.30;99.90;;;;;;5082352;28;20025;-85
2021/06/10 07:36:58;;;;;;;3.03;1.90;;;22.30;99.90;;;;;;5080217;28;20028;-81
2021/06/10 07:39:24;;;;;;;0.90;0.90;;;22.30;99.90;;;;;;5081636;28;20027;-84
2021/06/10 07:41:50;;;;;;;0.80;0.80;;;22.20;99.90;;;;;;5083360;28;20133;-83
2021/06/10 07:44:15;;;;;;;0.82;0.82;;;22.30;99.90;;;;;;5088623;28;20035;-84
2021/06/10 07:46:41;;;;;;;0.77;0.77;;;22.40;99.90;;;;;;5113695;28;20081;-86
2021/06/10 07:49:07;;;;;;;1.80;1.13;;;22.60;99.90;;;;;;5082276;28;20081;-81
2021/06/10 07:51:32;;;;;;;1.27;1.17;;;22.70;99.90;;;;;;5072930;28;20447;-82
2021/06/10 07:53:58;;;;;;;0.80;0.80;;;22.60;99.90;;;;;;5078857;28;20023;-81
2021/06/10 07:56:24;;;;;;;1.23;1.13;;;22.70;99.90;;;;;;5101332;28;20068;-77
2021/06/10 07:58:50;;;;;;;0.90;0.90;;;22.70;99.90;;;;;;5101145;28;20473;-81
2021/06/10 08:01:16;;;;;;;0.68;0.68;;;22.80;99.90;;;;;;5102473;28;20388;-78
2021/06/10 08:03:42;;;;;;;0.70;0.70;;;22.90;99.90;;;;;;5099621;28;20494;-79
2021/06/10 08:06:07;;;;;;;0.70;0.70;;;23.10;99.90;;;;;;5084214;28;20158;-78
2021/06/10 08:08:33;;;;;;;0.60;0.60;;;23.10;99.90;;;;;;5097868;28;20026;-79
2021/06/10 08:11:05;;;;;;;1.27;1.05;;;23.20;99.90;;;;;;5097792;28;20421;-79
2021/06/10 08:13:31;;;;;;;0.82;0.82;;;23.30;99.90;;;;;;5101165;28;20024;-77
2021/06/10 08:15:57;;;;;;;1.27;1.17;;;23.30;99.50;;;;;;5100976;28;20030;-78
2021/06/10 08:18:23;;;;;;;0.70;0.70;;;23.50;99.80;;;;;;5099534;28;20024;-76
2021/06/10 08:20:49;;;;;;;0.70;0.70;;;23.70;99.50;;;;;;5099725;28;20024;-79
2021/06/10 08:23:16;;;;;;;2.05;1.65;;;23.60;99.80;;;;;;5076513;28;20020;-78
2021/06/10 08:25:45;;;;;;;0.80;0.80;;;23.70;99.50;;;;;;5081866;28;20530;-80
2021/06/10 08:28:12;;;;;;;0.70;0.70;;;23.70;99.10;;;;;;5080713;28;20036;-80
2021/06/10 08:30:39;;;;;;;0.73;0.73;;;23.90;99.20;;;;;;5054228;28;20127;-80
2021/06/10 08:33:08;;;;;;;0.60;0.60;;;24.00;99.00;;;;;;5071039;28;20012;-85
2021/06/10 08:35:34;;;;;;;5.05;1.35;;;24.30;98.60;;;;;;5071775;28;20025;-83
2021/06/10 08:38:06;;;;;;;1.08;1.05;;;24.40;98.50;;;;;;5071817;28;20111;-80
2021/06/10 08:40:34;;;;;;;0.75;0.75;;;24.40;97.60;;;;;;5074301;28;20021;-82
2021/06/10 08:43:00;;;;;;;0.80;0.80;;;24.40;97.90;;;;;;5091984;28;20032;-83
2021/06/10 08:48:54;;;;;;;0.70;0.70;;;24.30;96.70;;;;;;5018551;28;20024;-87
2021/06/10 08:51:31;;;;;;;0.57;0.57;;;24.60;96.90;;;;;;5053215;28;20017;-85
2021/06/10 08:53:57;;;;;;;0.63;0.63;;;24.80;96.40;;;;;;5053000;28;20029;-82
2021/06/10 08:59:26;;;;;;;0.55;0.55;;;25.10;95.30;;;;;;5054312;28;20044;-86
2021/06/10 09:01:51;;;;;;;0.70;0.70;;;25.30;94.70;;;;;;5053522;28;20025;-85
2021/06/10 09:04:17;;;;;;;0.60;0.60;;;25.60;94.30;;;;;;5071059;28;20029;-84
2021/06/10 09:06:54;;;;;;;1.08;0.98;;;25.60;93.60;;;;;;5071823;28;20024;-86
2021/06/10 09:09:39;;;;;;;0.90;0.88;;;25.90;91.80;;;;;;5053502;28;20054;-86
2021/06/10 09:12:31;;;;;;;0.98;0.98;;;26.10;90.40;;;;;;5054460;28;20032;-86
2021/06/10 09:15:24;;;;;;;0.50;0.50;;;26.30;87.70;;;;;;5053271;28;20021;-89
2021/06/10 09:18:03;;;;;;;0.60;0.60;;;26.50;84.00;;;;;;5069703;28;20032;-87
2021/06/10 09:21:17;;;;;;;1.30;1.00;;;26.30;82.80;;;;;;5051499;28;20444;-86
2021/06/10 09:24:18;;;;;;;1.95;1.70;;;25.90;82.70;;;;;;5054402;28;20035;-87
2021/06/10 09:27:20;;;;;;;2.25;1.13;;;26.20;82.00;;;;;;5049439;28;20064;-86
2021/06/10 09:30:01;;;;;;;0.73;0.73;;;26.50;81.00;;;;;;5031412;28;20040;-84
2021/06/10 09:36:24;;;;;;;1.10;1.00;;;27.30;76.60;;;;;;4950978;29;20451;-82
2021/06/10 09:39:24;;;;;;;0.45;0.45;;;27.30;77.10;;;;;;4934672;29;20180;-84
2021/06/10 09:42:08;;;;;;;1.25;0.93;;;27.30;75.10;;;;;;4995928;28;20036;-83
2021/06/10 09:44:45;;;;;;;1.27;0.60;;;27.50;76.00;;;;;;5017210;28;20497;-81
2021/06/10 09:47:12;;;;;;;0.95;0.75;;;27.30;73.10;;;;;;5050506;28;20407;-82
2021/06/10 09:49:37;;;;;;;0.40;0.40;;;27.20;73.50;;;;;;5050945;28;20447;-84
2021/06/10 09:52:04;;;;;;;0.45;0.45;;;27.40;71.60;;;;;;5050554;28;20571;-83
2021/06/10 09:54:52;;;;;;;1.02;0.93;;;27.60;71.70;;;;;;5032534;28;20029;-85
2021/06/10 09:57:19;;;;;;;0.40;0.40;;;27.70;71.60;;;;;;5050884;28;20771;-83
2021/06/10 09:59:45;;;;;;;0.38;0.38;;;27.50;70.50;;;;;;5049991;28;20052;-81
2021/06/10 10:02:18;;;;;;;0.50;0.50;;;27.70;71.20;;;;;;5050477;28;20076;-83
2021/06/10 10:05:10;;;;;;;0.73;0.70;;;27.80;69.50;;;;;;5050265;28;20427;-83
2021/06/10 10:07:37;;;;;;;1.20;0.90;;;27.70;69.80;;;;;;5047138;28;20033;-82
2021/06/10 10:10:06;;;;;;;0.40;0.40;;;27.80;70.10;;;;;;5050920;28;20029;-82
2021/06/10 10:12:32;;;;;;;0.47;0.40;;;26.70;70.00;;;;;;5050753;28;20111;-79
2021/06/10 10:15:12;;;;;;;0.38;0.38;;;26.80;72.60;;;;;;5068797;28;20115;-85
2021/06/10 10:17:37;;;;;;;0.45;0.45;;;26.50;71.20;;;;;;5069284;28;20040;-82
2021/06/10 10:20:12;;;;;;;0.40;0.40;;;25.90;72.10;;;;;;5090961;28;20074;-84
2021/06/10 10:22:39;;;;;;;0.85;0.75;;;25.80;71.80;;;;;;5089695;28;20024;-78
2021/06/10 10:25:05;;;;;;;0.40;0.40;;;25.90;72.80;;;;;;5081945;28;20103;-77
2021/06/10 10:27:35;;;;;;;0.50;0.50;;;25.70;74.30;;;;;;5070433;28;20063;-80
2021/06/10 10:30:01;;;;;;;0.70;0.70;;;25.00;79.30;;;;;;5052676;28;20124;-77
2021/06/10 10:32:29;;;;;;;0.77;0.77;;;24.30;78.60;;;;;;5032741;28;20048;-79
2021/06/10 10:35:21;;;;;;;1.33;1.23;;;24.30;75.80;;;;;;5050301;28;20028;-77
2021/06/10 10:37:48;;;;;;;0.70;0.70;;;24.30;76.30;;;;;;5032104;28;20040;-77
2021/06/10 10:40:28;;;;;;;0.60;0.60;;;24.30;76.30;;;;;;5032750;28;20036;-79
2021/06/10 10:42:55;;;;;;;0.50;0.50;;;24.20;79.00;;;;;;5049994;28;20376;-79
2021/06/10 10:45:26;;;;;;;0.60;0.60;;;24.20;79.00;;;;;;5050289;28;20053;-81
2021/06/10 10:47:58;;;;;;;0.50;0.50;;;24.20;76.60;;;;;;5033107;28;20036;-78
2021/06/10 10:50:45;;;;;;;0.80;0.80;;;24.20;81.30;;;;;;5049977;28;20334;-78
2021/06/10 10:53:25;;;;;;;0.70;0.70;;;24.10;84.30;;;;;;5032222;28;20033;-77
2021/06/10 10:56:11;;;;;;;0.75;0.75;;;23.90;84.30;;;;;;5051849;28;20021;-85
2021/06/10 10:58:40;;;;;;;0.60;0.60;;;23.60;89.00;;;;;;5054018;28;20025;-79
2021/06/10 11:01:10;;;;;;;0.73;0.73;;;23.40;89.00;;;;;;5054168;28;20056;-80
2021/06/10 11:03:44;;;;;;;0.77;0.77;;;23.40;90.50;;;;;;5051569;28;20028;-80
2021/06/10 11:06:22;;;;;;;1.13;0.93;;;23.30;90.00;;;;;;5053188;28;20021;-78
2021/06/10 11:09:12;;;;;;;0.70;0.70;;;23.30;91.60;;;;;;5053433;28;20060;-79
2021/06/10 11:11:58;;;;;;;0.70;0.70;;;23.30;91.40;;;;;;5053737;28;20064;-80
2021/06/10 11:14:50;;;;;;;0.70;0.70;;;23.30;90.80;;;;;;5053079;28;20032;-79
2021/06/10 11:17:23;;;;;;;1.02;1.02;;;23.30;92.40;;;;;;5054170;28;20045;-84
2021/06/10 11:19:53;;;;;;;1.08;1.02;;;23.20;92.30;;;;;;5053372;28;20028;-77
2021/06/10 11:22:33;;;;;;;1.10;1.05;;;22.90;93.30;;;;;;5035544;28;20384;-76
2021/06/10 11:25:00;;;;;;;0.88;0.88;;;22.80;93.30;;;;;;5065838;28;20020;-81
2021/06/10 11:27:46;;;;;;;1.23;1.05;;;22.70;93.40;;;;;;5075532;28;20044;-77
2021/06/10 11:30:16;;;;;;;1.58;1.38;;;22.60;94.90;;;;;;5093945;28;20027;-83
2021/06/10 11:33:00;;;;;;;0.80;0.80;;;22.40;95.90;;;;;;5093020;28;20047;-76
2021/06/10 11:35:43;;;;;;;0.80;0.80;;;22.20;94.90;;;;;;5093167;28;20028;-78
2021/06/10 11:38:11;;;;;;;0.80;0.80;;;22.20;94.20;;;;;;5093084;28;20439;-76
2021/06/10 11:40:39;;;;;;;0.80;0.80;;;22.20;93.90;;;;;;5093378;28;20414;-79
2021/06/10 11:43:07;;;;;;;0.70;0.70;;;22.20;95.20;;;;;;5077591;28;20056;-81
2021/06/10 11:45:34;;;;;;;1.50;1.40;;;22.30;95.30;;;;;;5044163;28;20067;-81
2021/06/10 11:48:00;;;;;;;0.80;0.80;;;22.50;93.90;;;;;;5072387;28;20474;-81
2021/06/10 11:50:35;;;;;;;0.80;0.80;;;22.80;91.40;;;;;;5071601;28;20021;-79
2021/06/10 11:53:18;;;;;;;0.80;0.80;;;23.10;91.20;;;;;;5071300;28;20356;-80
2021/06/10 11:55:45;;;;;;;0.82;0.82;;;23.20;91.10;;;;;;5068811;28;20021;-79
2021/06/10 11:58:12;;;;;;;0.80;0.80;;;22.50;96.60;;;;;;5072193;28;20024;-81
2021/06/10 12:00:40;;;;;;;0.80;0.80;;;21.70;99.90;;;;;;5065550;28;20029;-80
2021/06/10 12:03:07;;;;;;;1.08;1.05;;;21.00;99.90;;;;;;5063727;28;20107;-83
2021/06/10 12:05:36;;;;;;;2.15;1.90;;;21.00;99.90;;;;;;5047028;28;20032;-79
2021/06/10 12:08:10;;;;;;;1.00;1.00;;;21.00;99.90;;;;;;5064212;28;20098;-79
2021/06/10 12:10:36;;;;;;;0.90;0.90;;;21.00;99.90;;;;;;5061625;28;20044;-76
2021/06/10 12:13:03;;;;;;;1.25;1.15;;;21.40;99.90;;;;;;5071619;28;20369;-80
2021/06/10 12:15:36;;;;;;;2.83;1.70;;;21.50;99.90;;;;;;5071572;28;20373;-78
2021/06/10 12:18:08;;;;;;;1.15;1.13;;;21.50;99.90;;;;;;5062319;28;20400;-81
2021/06/10 12:20:39;;;;;;;1.42;1.33;;;21.60;99.90;;;;;;5052210;28;20021;-79
2021/06/10 12:23:13;;;;;;;1.00;1.00;;;21.60;99.90;;;;;;5052191;28;20029;-81
2021/06/10 12:25:39;;;;;;;0.82;0.82;;;21.50;99.90;;;;;;5072337;28;20023;-80
2021/06/10 12:28:05;;;;;;;4.18;1.60;;;21.70;99.90;;;;;;5071110;28;20037;-78
2021/06/10 12:30:38;;;;;;;2.28;2.08;;;21.80;99.90;;;;;;5054717;28;20021;-80
2021/06/10 12:33:10;;;;;;;1.10;1.10;;;22.00;99.90;;;;;;5052654;28;20456;-77
2021/06/10 12:35:37;;;;;;;0.95;0.95;;;22.10;99.90;;;;;;5051854;28;20353;-77
2021/06/10 12:38:03;;;;;;;0.75;0.75;;;22.10;99.90;;;;;;5051754;28;20064;-79
2021/06/10 12:40:40;;;;;;;0.95;0.95;;;22.00;99.90;;;;;;5052230;28;20025;-77
2021/06/10 12:43:17;;;;;;;2.22;1.30;;;22.00;99.90;;;;;;5051940;28;20039;-78
2021/06/10 12:45:43;;;;;;;0.80;0.80;;;22.00;99.90;;;;;;5037788;28;20049;-78
2021/06/10 12:48:28;;;;;;;0.80;0.80;;;22.00;99.90;;;;;;5031606;28;20052;-82
2021/06/10 12:51:19;;;;;;;2.15;1.33;;;22.00;99.90;;;;;;5031491;28;20029;-79
2021/06/10 12:54:32;;;;;;;1.00;1.00;;;22.20;99.90;;;;;;5031627;28;20049;-81
2021/06/10 12:56:58;;;;;;;1.00;1.00;;;22.20;99.90;;;;;;5027362;28;20050;-78
2021/06/10 12:59:34;;;;;;;2.67;2.13;;;22.10;99.90;;;;;;5031758;28;20471;-78
2021/06/10 13:02:05;;;;;;;0.88;0.88;;;22.10;99.90;;;;;;5031269;28;20033;-81
2021/06/10 13:04:32;;;;;;;0.90;0.90;;;22.30;99.90;;;;;;5032047;28;20079;-80
2021/06/10 13:06:58;;;;;;;0.93;0.93;;;22.00;99.90;;;;;;5031384;28;20032;-76
2021/06/10 13:09:25;;;;;;;1.30;1.17;;;22.10;99.90;;;;;;5031953;28;20029;-80
2021/06/10 13:12:13;;;;;;;0.80;0.80;;;22.20;99.90;;;;;;5031144;28;20072;-78